sensor_id;sensor_type;location;lat;lon;timestamp;P1;durP1;ratioP1;P2;durP2;ratioP2
64351;SDS011;50680;52.626;-8.668;2023-02-08T00:01:49;21.88;;;10.32;;
64351;SDS011;50680;52.626;-8.668;2023-02-08T00:04:16;21.55;;;11.05;;
64351;SDS011;50680;52.626;-8.668;2023-02-08T00:06:43;22.98;;;11.75;;
64351;SDS011;50680;52.626;-8.668;2023-02-08T00:09:10;22.73;;;11.60;;
64351;SDS011;50680;52.626;-8.668;2023-02-08T00:11:37;27.92;;;13.80;;
64351;SDS011;50680;52.626;-8.668;2023-02-08T00:14:04;24.15;;;12.07;;
64351;SDS011;50680;52.626;-8.668;2023-02-08T00:16:31;22.90;;;12.18;;
64351;SDS011;50680;52.626;-8.668;2023-02-08T00:18:57;25.80;;;12.60;;
64351;SDS011;50680;52.626;-8.668;2023-02-08T00:21:24;30.00;;;12.95;;
64351;SDS011;50680;52.626;-8.668;2023-02-08T00:23:51;29.40;;;12.43;;
64351;SDS011;50680;52.626;-8.668;2023-02-08T00:26:18;33.90;;;12.68;;
64351;SDS011;50680;52.626;-8.668;2023-02-08T00:28:45;24.10;;;12.93;;
64351;SDS011;50680;52.626;-8.668;2023-02-08T00:31:12;27.75;;;12.00;;
64351;SDS011;50680;52.626;-8.668;2023-02-08T00:33:39;29.35;;;12.95;;
64351;SDS011;50680;52.626;-8.668;2023-02-08T00:36:06;28.05;;;12.10;;
64351;SDS011;50680;52.626;-8.668;2023-02-08T00:38:34;26.70;;;12.27;;
64351;SDS011;50680;52.626;-8.668;2023-02-08T00:41:01;30.75;;;12.57;;
64351;SDS011;50680;52.626;-8.668;2023-02-08T00:43:28;23.15;;;13.30;;
64351;SDS011;50680;52.626;-8.668;2023-02-08T00:45:55;21.38;;;12.13;;
64351;SDS011;50680;52.626;-8.668;2023-02-08T00:48:24;32.53;;;13.32;;
64351;SDS011;50680;52.626;-8.668;2023-02-08T00:53:36;23.98;;;12.25;;
64351;SDS011;50680;52.626;-8.668;2023-02-08T00:56:04;28.65;;;12.55;;
64351;SDS011;50680;52.626;-8.668;2023-02-08T00:58:32;28.63;;;12.52;;
64351;SDS011;50680;52.626;-8.668;2023-02-08T01:01:00;27.00;;;13.10;;
64351;SDS011;50680;52.626;-8.668;2023-02-08T01:03:27;33.10;;;11.93;;
64351;SDS011;50680;52.626;-8.668;2023-02-08T01:05:59;24.83;;;11.85;;
64351;SDS011;50680;52.626;-8.668;2023-02-08T01:08:26;31.80;;;12.70;;
64351;SDS011;50680;52.626;-8.668;2023-02-08T01:11:00;28.40;;;11.63;;
64351;SDS011;50680;52.626;-8.668;2023-02-08T01:13:28;21.55;;;11.95;;
64351;SDS011;50680;52.626;-8.668;2023-02-08T01:16:03;26.17;;;12.73;;
64351;SDS011;50680;52.626;-8.668;2023-02-08T01:18:41;29.42;;;11.82;;
64351;SDS011;50680;52.626;-8.668;2023-02-08T01:21:11;33.95;;;13.30;;
64351;SDS011;50680;52.626;-8.668;2023-02-08T01:23:40;22.80;;;12.32;;
64351;SDS011;50680;52.626;-8.668;2023-02-08T01:26:08;37.53;;;12.05;;
64351;SDS011;50680;52.626;-8.668;2023-02-08T01:28:36;30.95;;;13.02;;
64351;SDS011;50680;52.626;-8.668;2023-02-08T01:31:04;31.42;;;11.90;;
64351;SDS011;50680;52.626;-8.668;2023-02-08T01:33:33;28.48;;;12.63;;
64351;SDS011;50680;52.626;-8.668;2023-02-08T01:36:01;27.05;;;12.13;;
64351;SDS011;50680;52.626;-8.668;2023-02-08T01:38:28;29.00;;;13.10;;
64351;SDS011;50680;52.626;-8.668;2023-02-08T01:40:55;30.80;;;11.48;;
64351;SDS011;50680;52.626;-8.668;2023-02-08T01:43:25;31.48;;;11.82;;
64351;SDS011;50680;52.626;-8.668;2023-02-08T01:46:00;25.77;;;11.18;;
64351;SDS011;50680;52.626;-8.668;2023-02-08T01:48:29;32.20;;;11.55;;
64351;SDS011;50680;52.626;-8.668;2023-02-08T01:53:43;24.13;;;12.80;;
64351;SDS011;50680;52.626;-8.668;2023-02-08T01:56:12;35.97;;;12.15;;
64351;SDS011;50680;52.626;-8.668;2023-02-08T01:58:45;32.88;;;13.50;;
64351;SDS011;50680;52.626;-8.668;2023-02-08T02:01:16;28.45;;;11.77;;
64351;SDS011;50680;52.626;-8.668;2023-02-08T02:03:43;29.75;;;12.68;;
64351;SDS011;50680;52.626;-8.668;2023-02-08T02:06:12;26.20;;;12.10;;
64351;SDS011;50680;52.626;-8.668;2023-02-08T02:08:46;26.17;;;10.48;;
64351;SDS011;50680;52.626;-8.668;2023-02-08T02:11:21;27.75;;;10.13;;
64351;SDS011;50680;52.626;-8.668;2023-02-08T02:13:48;25.17;;;10.85;;
64351;SDS011;50680;52.626;-8.668;2023-02-08T02:16:16;24.10;;;10.75;;
64351;SDS011;50680;52.626;-8.668;2023-02-08T02:18:43;23.50;;;11.25;;
64351;SDS011;50680;52.626;-8.668;2023-02-08T02:21:56;24.85;;;10.45;;
64351;SDS011;50680;52.626;-8.668;2023-02-08T02:27:04;29.70;;;10.98;;
64351;SDS011;50680;52.626;-8.668;2023-02-08T02:32:34;29.23;;;11.45;;
64351;SDS011;50680;52.626;-8.668;2023-02-08T02:43:05;30.90;;;11.50;;
64351;SDS011;50680;52.626;-8.668;2023-02-08T02:56:24;23.75;;;9.27;;
64351;SDS011;50680;52.626;-8.668;2023-02-08T02:58:57;22.70;;;8.38;;
64351;SDS011;50680;52.626;-8.668;2023-02-08T03:01:28;18.38;;;9.23;;
64351;SDS011;50680;52.626;-8.668;2023-02-08T03:03:55;23.83;;;10.00;;
64351;SDS011;50680;52.626;-8.668;2023-02-08T03:12:29;21.35;;;8.55;;
64351;SDS011;50680;52.626;-8.668;2023-02-08T03:18:05;18.63;;;7.20;;
64351;SDS011;50680;52.626;-8.668;2023-02-08T03:20:43;16.48;;;7.82;;
64351;SDS011;50680;52.626;-8.668;2023-02-08T03:28:40;19.90;;;7.55;;
64351;SDS011;50680;52.626;-8.668;2023-02-08T03:32:10;25.20;;;8.43;;
64351;SDS011;50680;52.626;-8.668;2023-02-08T03:34:23;25.15;;;9.10;;
64351;SDS011;50680;52.626;-8.668;2023-02-08T03:36:53;17.17;;;8.07;;
64351;SDS011;50680;52.626;-8.668;2023-02-08T03:39:25;18.15;;;7.53;;
64351;SDS011;50680;52.626;-8.668;2023-02-08T03:41:57;13.52;;;7.50;;
64351;SDS011;50680;52.626;-8.668;2023-02-08T03:44:30;18.42;;;7.82;;
64351;SDS011;50680;52.626;-8.668;2023-02-08T03:47:11;16.55;;;8.40;;
64351;SDS011;50680;52.626;-8.668;2023-02-08T03:49:43;20.25;;;8.52;;
64351;SDS011;50680;52.626;-8.668;2023-02-08T03:52:14;22.55;;;7.10;;
64351;SDS011;50680;52.626;-8.668;2023-02-08T03:54:56;16.10;;;6.55;;
64351;SDS011;50680;52.626;-8.668;2023-02-08T03:57:31;17.27;;;7.60;;
64351;SDS011;50680;52.626;-8.668;2023-02-08T04:00:07;17.02;;;7.32;;
64351;SDS011;50680;52.626;-8.668;2023-02-08T04:02:37;18.13;;;7.38;;
64351;SDS011;50680;52.626;-8.668;2023-02-08T04:05:08;20.17;;;8.13;;
64351;SDS011;50680;52.626;-8.668;2023-02-08T04:07:35;17.63;;;7.82;;
64351;SDS011;50680;52.626;-8.668;2023-02-08T04:10:03;21.70;;;8.93;;
64351;SDS011;50680;52.626;-8.668;2023-02-08T04:12:30;16.95;;;8.80;;
64351;SDS011;50680;52.626;-8.668;2023-02-08T04:14:57;25.65;;;8.63;;
64351;SDS011;50680;52.626;-8.668;2023-02-08T04:17:23;20.52;;;8.43;;
64351;SDS011;50680;52.626;-8.668;2023-02-08T04:19:50;21.77;;;8.43;;
64351;SDS011;50680;52.626;-8.668;2023-02-08T04:22:17;19.63;;;8.10;;
64351;SDS011;50680;52.626;-8.668;2023-02-08T04:24:44;22.67;;;8.80;;
64351;SDS011;50680;52.626;-8.668;2023-02-08T04:27:10;24.33;;;8.18;;
64351;SDS011;50680;52.626;-8.668;2023-02-08T04:29:37;26.33;;;8.50;;
64351;SDS011;50680;52.626;-8.668;2023-02-08T04:32:04;23.55;;;8.55;;
64351;SDS011;50680;52.626;-8.668;2023-02-08T04:34:33;21.52;;;8.25;;
64351;SDS011;50680;52.626;-8.668;2023-02-08T04:37:00;31.35;;;7.57;;
64351;SDS011;50680;52.626;-8.668;2023-02-08T04:39:27;21.70;;;7.70;;
64351;SDS011;50680;52.626;-8.668;2023-02-08T04:41:53;23.38;;;7.85;;
64351;SDS011;50680;52.626;-8.668;2023-02-08T04:44:20;23.48;;;8.32;;
64351;SDS011;50680;52.626;-8.668;2023-02-08T04:46:47;17.98;;;7.70;;
64351;SDS011;50680;52.626;-8.668;2023-02-08T04:49:14;24.75;;;7.50;;
64351;SDS011;50680;52.626;-8.668;2023-02-08T04:51:41;22.92;;;8.05;;
64351;SDS011;50680;52.626;-8.668;2023-02-08T04:54:08;21.65;;;7.13;;
64351;SDS011;50680;52.626;-8.668;2023-02-08T04:56:35;17.60;;;7.45;;
64351;SDS011;50680;52.626;-8.668;2023-02-08T04:59:03;20.98;;;8.10;;
64351;SDS011;50680;52.626;-8.668;2023-02-08T05:01:30;15.65;;;7.72;;
64351;SDS011;50680;52.626;-8.668;2023-02-08T05:03:57;18.60;;;7.00;;
64351;SDS011;50680;52.626;-8.668;2023-02-08T05:06:24;26.00;;;7.93;;
64351;SDS011;50680;52.626;-8.668;2023-02-08T05:08:50;23.30;;;7.82;;
64351;SDS011;50680;52.626;-8.668;2023-02-08T05:11:20;17.98;;;7.45;;
64351;SDS011;50680;52.626;-8.668;2023-02-08T05:13:49;23.88;;;8.35;;
64351;SDS011;50680;52.626;-8.668;2023-02-08T05:16:16;22.67;;;7.82;;
64351;SDS011;50680;52.626;-8.668;2023-02-08T05:18:44;14.45;;;7.63;;
64351;SDS011;50680;52.626;-8.668;2023-02-08T05:21:11;22.20;;;8.77;;
64351;SDS011;50680;52.626;-8.668;2023-02-08T05:23:38;18.67;;;7.13;;
64351;SDS011;50680;52.626;-8.668;2023-02-08T05:26:08;24.00;;;7.05;;
64351;SDS011;50680;52.626;-8.668;2023-02-08T05:28:36;16.00;;;7.30;;
64351;SDS011;50680;52.626;-8.668;2023-02-08T05:31:23;19.58;;;7.10;;
64351;SDS011;50680;52.626;-8.668;2023-02-08T05:33:51;18.63;;;7.65;;
64351;SDS011;50680;52.626;-8.668;2023-02-08T05:36:19;16.67;;;7.05;;
64351;SDS011;50680;52.626;-8.668;2023-02-08T05:38:46;23.10;;;7.68;;
64351;SDS011;50680;52.626;-8.668;2023-02-08T05:41:13;20.38;;;6.47;;
64351;SDS011;50680;52.626;-8.668;2023-02-08T05:43:40;27.15;;;7.28;;
64351;SDS011;50680;52.626;-8.668;2023-02-08T05:46:07;32.55;;;7.97;;
64351;SDS011;50680;52.626;-8.668;2023-02-08T05:48:34;22.30;;;6.63;;
64351;SDS011;50680;52.626;-8.668;2023-02-08T05:51:01;18.33;;;7.25;;
64351;SDS011;50680;52.626;-8.668;2023-02-08T05:53:28;21.65;;;6.97;;
64351;SDS011;50680;52.626;-8.668;2023-02-08T05:55:55;23.02;;;6.90;;
64351;SDS011;50680;52.626;-8.668;2023-02-08T05:58:23;32.35;;;8.35;;
64351;SDS011;50680;52.626;-8.668;2023-02-08T06:00:50;17.20;;;6.15;;
64351;SDS011;50680;52.626;-8.668;2023-02-08T06:03:18;24.85;;;7.07;;
64351;SDS011;50680;52.626;-8.668;2023-02-08T06:05:45;16.75;;;6.57;;
64351;SDS011;50680;52.626;-8.668;2023-02-08T06:08:12;21.75;;;7.05;;
64351;SDS011;50680;52.626;-8.668;2023-02-08T06:10:39;17.70;;;6.72;;
64351;SDS011;50680;52.626;-8.668;2023-02-08T06:13:06;29.65;;;8.35;;
64351;SDS011;50680;52.626;-8.668;2023-02-08T06:15:33;22.00;;;8.30;;
64351;SDS011;50680;52.626;-8.668;2023-02-08T06:18:00;18.65;;;7.50;;
64351;SDS011;50680;52.626;-8.668;2023-02-08T06:20:26;22.30;;;7.28;;
64351;SDS011;50680;52.626;-8.668;2023-02-08T06:22:53;20.95;;;6.50;;
64351;SDS011;50680;52.626;-8.668;2023-02-08T06:25:21;27.30;;;8.30;;
64351;SDS011;50680;52.626;-8.668;2023-02-08T06:27:47;24.38;;;8.48;;
64351;SDS011;50680;52.626;-8.668;2023-02-08T06:30:14;16.13;;;7.32;;
64351;SDS011;50680;52.626;-8.668;2023-02-08T06:32:41;24.33;;;7.22;;
64351;SDS011;50680;52.626;-8.668;2023-02-08T06:35:08;25.23;;;7.20;;
64351;SDS011;50680;52.626;-8.668;2023-02-08T06:37:35;15.35;;;6.43;;
64351;SDS011;50680;52.626;-8.668;2023-02-08T06:40:02;17.65;;;7.13;;
64351;SDS011;50680;52.626;-8.668;2023-02-08T06:42:30;19.75;;;6.10;;
64351;SDS011;50680;52.626;-8.668;2023-02-08T06:44:57;19.02;;;6.32;;
64351;SDS011;50680;52.626;-8.668;2023-02-08T06:47:25;17.52;;;6.50;;
64351;SDS011;50680;52.626;-8.668;2023-02-08T06:49:53;18.25;;;7.43;;
64351;SDS011;50680;52.626;-8.668;2023-02-08T06:52:20;22.35;;;6.70;;
64351;SDS011;50680;52.626;-8.668;2023-02-08T06:54:47;20.02;;;7.25;;
64351;SDS011;50680;52.626;-8.668;2023-02-08T06:57:14;16.65;;;6.38;;
64351;SDS011;50680;52.626;-8.668;2023-02-08T06:59:41;17.67;;;6.57;;
64351;SDS011;50680;52.626;-8.668;2023-02-08T07:02:11;29.08;;;7.00;;
64351;SDS011;50680;52.626;-8.668;2023-02-08T07:04:40;22.88;;;7.65;;
64351;SDS011;50680;52.626;-8.668;2023-02-08T07:07:07;33.67;;;10.05;;
64351;SDS011;50680;52.626;-8.668;2023-02-08T07:09:34;22.63;;;7.45;;
64351;SDS011;50680;52.626;-8.668;2023-02-08T07:12:01;31.20;;;7.85;;
64351;SDS011;50680;52.626;-8.668;2023-02-08T07:14:31;29.83;;;8.65;;
64351;SDS011;50680;52.626;-8.668;2023-02-08T07:17:02;19.63;;;9.57;;
64351;SDS011;50680;52.626;-8.668;2023-02-08T07:19:29;22.48;;;8.40;;
64351;SDS011;50680;52.626;-8.668;2023-02-08T07:21:56;25.80;;;8.55;;
64351;SDS011;50680;52.626;-8.668;2023-02-08T07:24:28;22.75;;;6.88;;
64351;SDS011;50680;52.626;-8.668;2023-02-08T07:26:55;25.23;;;7.57;;
64351;SDS011;50680;52.626;-8.668;2023-02-08T07:29:22;25.35;;;7.68;;
64351;SDS011;50680;52.626;-8.668;2023-02-08T07:31:48;21.85;;;7.25;;
64351;SDS011;50680;52.626;-8.668;2023-02-08T07:34:15;26.35;;;7.53;;
64351;SDS011;50680;52.626;-8.668;2023-02-08T07:39:14;19.25;;;6.40;;
64351;SDS011;50680;52.626;-8.668;2023-02-08T07:41:41;22.42;;;7.40;;
64351;SDS011;50680;52.626;-8.668;2023-02-08T07:44:08;20.15;;;6.80;;
64351;SDS011;50680;52.626;-8.668;2023-02-08T07:46:35;23.85;;;6.85;;
64351;SDS011;50680;52.626;-8.668;2023-02-08T07:49:02;20.23;;;6.75;;
64351;SDS011;50680;52.626;-8.668;2023-02-08T07:51:28;22.50;;;7.35;;
64351;SDS011;50680;52.626;-8.668;2023-02-08T07:53:55;16.08;;;5.40;;
64351;SDS011;50680;52.626;-8.668;2023-02-08T07:56:22;24.85;;;6.55;;
64351;SDS011;50680;52.626;-8.668;2023-02-08T07:58:49;24.27;;;6.28;;
64351;SDS011;50680;52.626;-8.668;2023-02-08T08:01:16;30.60;;;6.40;;
64351;SDS011;50680;52.626;-8.668;2023-02-08T08:03:49;20.58;;;5.82;;
64351;SDS011;50680;52.626;-8.668;2023-02-08T08:06:20;15.52;;;5.72;;
64351;SDS011;50680;52.626;-8.668;2023-02-08T08:08:48;24.25;;;5.90;;
64351;SDS011;50680;52.626;-8.668;2023-02-08T08:11:16;18.67;;;4.50;;
64351;SDS011;50680;52.626;-8.668;2023-02-08T08:13:44;21.65;;;6.22;;
64351;SDS011;50680;52.626;-8.668;2023-02-08T08:16:11;10.63;;;5.25;;
64351;SDS011;50680;52.626;-8.668;2023-02-08T08:18:39;20.50;;;5.70;;
64351;SDS011;50680;52.626;-8.668;2023-02-08T08:21:05;17.80;;;6.22;;
64351;SDS011;50680;52.626;-8.668;2023-02-08T08:23:32;22.98;;;6.32;;
64351;SDS011;50680;52.626;-8.668;2023-02-08T08:26:35;22.55;;;6.03;;
64351;SDS011;50680;52.626;-8.668;2023-02-08T08:28:55;20.30;;;5.68;;
64351;SDS011;50680;52.626;-8.668;2023-02-08T08:31:21;21.10;;;6.45;;
64351;SDS011;50680;52.626;-8.668;2023-02-08T08:33:49;21.02;;;5.63;;
64351;SDS011;50680;52.626;-8.668;2023-02-08T08:36:16;23.85;;;7.03;;
64351;SDS011;50680;52.626;-8.668;2023-02-08T08:38:43;20.33;;;5.82;;
64351;SDS011;50680;52.626;-8.668;2023-02-08T08:41:11;14.85;;;6.13;;
64351;SDS011;50680;52.626;-8.668;2023-02-08T08:43:43;16.23;;;5.40;;
64351;SDS011;50680;52.626;-8.668;2023-02-08T08:46:10;23.08;;;6.10;;
64351;SDS011;50680;52.626;-8.668;2023-02-08T08:48:37;16.65;;;5.00;;
64351;SDS011;50680;52.626;-8.668;2023-02-08T08:51:05;27.05;;;5.78;;
64351;SDS011;50680;52.626;-8.668;2023-02-08T08:53:33;15.85;;;5.88;;
64351;SDS011;50680;52.626;-8.668;2023-02-08T08:56:00;16.35;;;4.53;;
64351;SDS011;50680;52.626;-8.668;2023-02-08T08:58:27;20.27;;;5.35;;
64351;SDS011;50680;52.626;-8.668;2023-02-08T09:00:57;15.77;;;4.30;;
64351;SDS011;50680;52.626;-8.668;2023-02-08T09:03:26;15.18;;;4.88;;
64351;SDS011;50680;52.626;-8.668;2023-02-08T09:05:53;13.18;;;5.07;;
64351;SDS011;50680;52.626;-8.668;2023-02-08T09:08:20;18.85;;;4.82;;
64351;SDS011;50680;52.626;-8.668;2023-02-08T09:10:47;18.63;;;4.95;;
64351;SDS011;50680;52.626;-8.668;2023-02-08T09:13:14;17.80;;;4.53;;
64351;SDS011;50680;52.626;-8.668;2023-02-08T09:15:45;13.10;;;4.40;;
64351;SDS011;50680;52.626;-8.668;2023-02-08T09:18:12;17.50;;;4.80;;
64351;SDS011;50680;52.626;-8.668;2023-02-08T09:20:39;13.23;;;4.20;;
64351;SDS011;50680;52.626;-8.668;2023-02-08T09:23:07;16.08;;;3.80;;
64351;SDS011;50680;52.626;-8.668;2023-02-08T09:25:34;18.77;;;4.10;;
64351;SDS011;50680;52.626;-8.668;2023-02-08T09:28:02;11.77;;;3.95;;
64351;SDS011;50680;52.626;-8.668;2023-02-08T09:30:29;16.25;;;4.50;;
64351;SDS011;50680;52.626;-8.668;2023-02-08T09:32:56;12.20;;;4.20;;
64351;SDS011;50680;52.626;-8.668;2023-02-08T09:35:23;12.32;;;4.45;;
64351;SDS011;50680;52.626;-8.668;2023-02-08T09:37:51;19.88;;;3.88;;
64351;SDS011;50680;52.626;-8.668;2023-02-08T09:40:22;17.42;;;4.00;;
64351;SDS011;50680;52.626;-8.668;2023-02-08T09:42:59;15.93;;;3.88;;
64351;SDS011;50680;52.626;-8.668;2023-02-08T09:45:39;15.95;;;3.97;;
64351;SDS011;50680;52.626;-8.668;2023-02-08T09:48:31;15.15;;;4.53;;
64351;SDS011;50680;52.626;-8.668;2023-02-08T09:51:06;14.68;;;4.47;;
64351;SDS011;50680;52.626;-8.668;2023-02-08T09:53:49;20.70;;;4.70;;
64351;SDS011;50680;52.626;-8.668;2023-02-08T09:56:25;15.05;;;3.97;;
64351;SDS011;50680;52.626;-8.668;2023-02-08T09:58:56;14.05;;;4.70;;
64351;SDS011;50680;52.626;-8.668;2023-02-08T10:01:29;13.32;;;4.25;;
64351;SDS011;50680;52.626;-8.668;2023-02-08T10:06:33;12.45;;;4.60;;
64351;SDS011;50680;52.626;-8.668;2023-02-08T10:09:01;19.05;;;4.88;;
64351;SDS011;50680;52.626;-8.668;2023-02-08T10:31:24;17.52;;;5.75;;
64351;SDS011;50680;52.626;-8.668;2023-02-08T10:36:52;12.88;;;4.78;;
64351;SDS011;50680;52.626;-8.668;2023-02-08T10:39:23;10.98;;;4.60;;
64351;SDS011;50680;52.626;-8.668;2023-02-08T10:41:56;9.05;;;4.78;;
64351;SDS011;50680;52.626;-8.668;2023-02-08T10:47:14;14.18;;;5.15;;
64351;SDS011;50680;52.626;-8.668;2023-02-08T10:52:16;11.77;;;4.43;;
64351;SDS011;50680;52.626;-8.668;2023-02-08T10:54:43;14.32;;;4.53;;
64351;SDS011;50680;52.626;-8.668;2023-02-08T10:57:12;13.13;;;4.32;;
64351;SDS011;50680;52.626;-8.668;2023-02-08T10:59:50;11.38;;;4.18;;
64351;SDS011;50680;52.626;-8.668;2023-02-08T11:02:41;13.35;;;4.22;;
64351;SDS011;50680;52.626;-8.668;2023-02-08T11:07:37;10.50;;;4.55;;
64351;SDS011;50680;52.626;-8.668;2023-02-08T11:13:00;11.82;;;3.78;;
64351;SDS011;50680;52.626;-8.668;2023-02-08T11:18:01;11.65;;;4.35;;
64351;SDS011;50680;52.626;-8.668;2023-02-08T11:20:34;14.15;;;4.65;;
64351;SDS011;50680;52.626;-8.668;2023-02-08T11:23:23;14.18;;;4.65;;
64351;SDS011;50680;52.626;-8.668;2023-02-08T11:26:38;16.95;;;4.60;;
64351;SDS011;50680;52.626;-8.668;2023-02-08T11:29:16;10.25;;;4.22;;
64351;SDS011;50680;52.626;-8.668;2023-02-08T11:34:24;14.65;;;3.83;;
64351;SDS011;50680;52.626;-8.668;2023-02-08T11:36:59;12.30;;;3.97;;
64351;SDS011;50680;52.626;-8.668;2023-02-08T11:44:54;11.35;;;4.40;;
64351;SDS011;50680;52.626;-8.668;2023-02-08T11:47:24;11.40;;;4.53;;
64351;SDS011;50680;52.626;-8.668;2023-02-08T11:49:57;14.70;;;4.25;;
64351;SDS011;50680;52.626;-8.668;2023-02-08T11:52:30;15.70;;;4.32;;
64351;SDS011;50680;52.626;-8.668;2023-02-08T11:55:21;13.73;;;4.90;;
64351;SDS011;50680;52.626;-8.668;2023-02-08T11:58:00;6.70;;;4.40;;
64351;SDS011;50680;52.626;-8.668;2023-02-08T12:00:35;14.02;;;4.55;;
64351;SDS011;50680;52.626;-8.668;2023-02-08T12:03:16;16.98;;;4.15;;
64351;SDS011;50680;52.626;-8.668;2023-02-08T12:08:49;12.85;;;4.97;;
64351;SDS011;50680;52.626;-8.668;2023-02-08T12:11:38;12.93;;;4.63;;
64351;SDS011;50680;52.626;-8.668;2023-02-08T12:38:53;11.88;;;4.85;;
64351;SDS011;50680;52.626;-8.668;2023-02-08T12:44:30;8.73;;;4.72;;
64351;SDS011;50680;52.626;-8.668;2023-02-08T12:50:05;15.07;;;4.90;;
64351;SDS011;50680;52.626;-8.668;2023-02-08T12:57:40;14.98;;;6.22;;
64351;SDS011;50680;52.626;-8.668;2023-02-08T13:05:39;15.40;;;6.50;;
64351;SDS011;50680;52.626;-8.668;2023-02-08T13:11:53;12.63;;;6.28;;
64351;SDS011;50680;52.626;-8.668;2023-02-08T13:17:21;10.85;;;5.13;;
64351;SDS011;50680;52.626;-8.668;2023-02-08T13:19:58;11.95;;;5.85;;
64351;SDS011;50680;52.626;-8.668;2023-02-08T13:22:36;13.38;;;6.63;;
64351;SDS011;50680;52.626;-8.668;2023-02-08T13:25:08;11.60;;;5.70;;
64351;SDS011;50680;52.626;-8.668;2023-02-08T13:27:44;10.60;;;5.28;;
64351;SDS011;50680;52.626;-8.668;2023-02-08T13:30:17;13.10;;;5.70;;
64351;SDS011;50680;52.626;-8.668;2023-02-08T13:32:46;10.82;;;5.63;;
64351;SDS011;50680;52.626;-8.668;2023-02-08T13:37:48;9.52;;;5.40;;
64351;SDS011;50680;52.626;-8.668;2023-02-08T13:40:30;9.82;;;6.13;;
64351;SDS011;50680;52.626;-8.668;2023-02-08T13:46:00;17.10;;;6.65;;
64351;SDS011;50680;52.626;-8.668;2023-02-08T13:48:38;12.93;;;5.90;;
64351;SDS011;50680;52.626;-8.668;2023-02-08T14:17:49;14.30;;;5.97;;
64351;SDS011;50680;52.626;-8.668;2023-02-08T14:23:02;15.20;;;6.53;;
64351;SDS011;50680;52.626;-8.668;2023-02-08T14:25:39;19.48;;;6.82;;
64351;SDS011;50680;52.626;-8.668;2023-02-08T14:30:58;13.98;;;7.22;;
64351;SDS011;50680;52.626;-8.668;2023-02-08T14:33:32;11.73;;;6.85;;
64351;SDS011;50680;52.626;-8.668;2023-02-08T14:36:03;15.43;;;7.40;;
64351;SDS011;50680;52.626;-8.668;2023-02-08T14:55:40;17.00;;;6.25;;
64351;SDS011;50680;52.626;-8.668;2023-02-08T14:58:31;11.15;;;6.93;;
64351;SDS011;50680;52.626;-8.668;2023-02-08T15:01:01;16.42;;;5.97;;
64351;SDS011;50680;52.626;-8.668;2023-02-08T15:03:33;16.25;;;5.90;;
64351;SDS011;50680;52.626;-8.668;2023-02-08T15:08:49;14.15;;;6.93;;
64351;SDS011;50680;52.626;-8.668;2023-02-08T15:11:23;11.40;;;6.68;;
64351;SDS011;50680;52.626;-8.668;2023-02-08T15:13:53;14.73;;;6.88;;
64351;SDS011;50680;52.626;-8.668;2023-02-08T15:16:33;16.38;;;6.18;;
64351;SDS011;50680;52.626;-8.668;2023-02-08T15:19:06;17.20;;;5.85;;
64351;SDS011;50680;52.626;-8.668;2023-02-08T15:21:34;12.32;;;5.95;;
64351;SDS011;50680;52.626;-8.668;2023-02-08T15:24:16;13.23;;;6.18;;
64351;SDS011;50680;52.626;-8.668;2023-02-08T15:26:49;14.50;;;6.15;;
64351;SDS011;50680;52.626;-8.668;2023-02-08T15:29:19;11.73;;;6.47;;
64351;SDS011;50680;52.626;-8.668;2023-02-08T15:31:55;19.90;;;6.57;;
64351;SDS011;50680;52.626;-8.668;2023-02-08T15:34:23;10.98;;;5.88;;
64351;SDS011;50680;52.626;-8.668;2023-02-08T15:36:52;17.90;;;5.80;;
64351;SDS011;50680;52.626;-8.668;2023-02-08T15:39:26;13.25;;;5.28;;
64351;SDS011;50680;52.626;-8.668;2023-02-08T15:42:14;8.45;;;6.07;;
64351;SDS011;50680;52.626;-8.668;2023-02-08T15:44:43;13.20;;;6.38;;
64351;SDS011;50680;52.626;-8.668;2023-02-08T15:47:18;19.05;;;6.45;;
64351;SDS011;50680;52.626;-8.668;2023-02-08T15:49:51;12.65;;;5.47;;
64351;SDS011;50680;52.626;-8.668;2023-02-08T15:52:22;15.38;;;6.00;;
64351;SDS011;50680;52.626;-8.668;2023-02-08T15:54:51;18.87;;;6.03;;
64351;SDS011;50680;52.626;-8.668;2023-02-08T16:00:00;9.05;;;5.40;;
64351;SDS011;50680;52.626;-8.668;2023-02-08T16:02:34;11.55;;;5.53;;
64351;SDS011;50680;52.626;-8.668;2023-02-08T16:05:09;14.70;;;5.28;;
64351;SDS011;50680;52.626;-8.668;2023-02-08T16:07:46;12.23;;;5.10;;
64351;SDS011;50680;52.626;-8.668;2023-02-08T16:10:22;12.75;;;6.00;;
64351;SDS011;50680;52.626;-8.668;2023-02-08T16:12:58;11.30;;;5.57;;
64351;SDS011;50680;52.626;-8.668;2023-02-08T16:15:38;15.20;;;5.47;;
64351;SDS011;50680;52.626;-8.668;2023-02-08T16:20:58;13.07;;;5.15;;
64351;SDS011;50680;52.626;-8.668;2023-02-08T16:23:27;10.18;;;5.82;;
64351;SDS011;50680;52.626;-8.668;2023-02-08T16:26:21;15.35;;;5.20;;
64351;SDS011;50680;52.626;-8.668;2023-02-08T16:29:36;15.43;;;6.13;;
64351;SDS011;50680;52.626;-8.668;2023-02-08T16:31:46;16.77;;;5.53;;
64351;SDS011;50680;52.626;-8.668;2023-02-08T16:34:21;17.92;;;7.00;;
64351;SDS011;50680;52.626;-8.668;2023-02-08T16:36:51;17.27;;;6.45;;
64351;SDS011;50680;52.626;-8.668;2023-02-08T16:39:37;11.70;;;5.72;;
64351;SDS011;50680;52.626;-8.668;2023-02-08T16:42:27;12.40;;;6.10;;
64351;SDS011;50680;52.626;-8.668;2023-02-08T16:45:00;15.73;;;6.78;;
64351;SDS011;50680;52.626;-8.668;2023-02-08T16:47:38;13.20;;;6.40;;
64351;SDS011;50680;52.626;-8.668;2023-02-08T16:50:05;16.63;;;5.93;;
64351;SDS011;50680;52.626;-8.668;2023-02-08T16:52:34;11.88;;;7.05;;
64351;SDS011;50680;52.626;-8.668;2023-02-08T16:55:01;13.80;;;6.45;;
64351;SDS011;50680;52.626;-8.668;2023-02-08T17:02:57;12.85;;;7.05;;
64351;SDS011;50680;52.626;-8.668;2023-02-08T17:05:25;9.27;;;6.13;;
64351;SDS011;50680;52.626;-8.668;2023-02-08T17:07:55;15.23;;;5.85;;
64351;SDS011;50680;52.626;-8.668;2023-02-08T17:10:24;11.43;;;5.75;;
64351;SDS011;50680;52.626;-8.668;2023-02-08T17:12:54;9.43;;;6.47;;
64351;SDS011;50680;52.626;-8.668;2023-02-08T17:15:42;15.85;;;6.30;;
64351;SDS011;50680;52.626;-8.668;2023-02-08T17:18:10;13.02;;;6.15;;
64351;SDS011;50680;52.626;-8.668;2023-02-08T17:20:37;14.43;;;6.00;;
64351;SDS011;50680;52.626;-8.668;2023-02-08T17:23:04;11.82;;;6.68;;
64351;SDS011;50680;52.626;-8.668;2023-02-08T17:25:33;9.93;;;5.28;;
64351;SDS011;50680;52.626;-8.668;2023-02-08T17:28:01;17.23;;;6.30;;
64351;SDS011;50680;52.626;-8.668;2023-02-08T17:30:35;14.60;;;7.18;;
64351;SDS011;50680;52.626;-8.668;2023-02-08T17:33:07;19.52;;;6.32;;
64351;SDS011;50680;52.626;-8.668;2023-02-08T17:35:35;11.75;;;6.30;;
64351;SDS011;50680;52.626;-8.668;2023-02-08T17:38:04;11.98;;;6.10;;
64351;SDS011;50680;52.626;-8.668;2023-02-08T17:40:32;14.73;;;6.53;;
64351;SDS011;50680;52.626;-8.668;2023-02-08T17:43:01;14.85;;;6.95;;
64351;SDS011;50680;52.626;-8.668;2023-02-08T17:45:29;12.07;;;6.28;;
64351;SDS011;50680;52.626;-8.668;2023-02-08T17:47:58;13.73;;;7.55;;
64351;SDS011;50680;52.626;-8.668;2023-02-08T17:50:25;12.27;;;7.22;;
64351;SDS011;50680;52.626;-8.668;2023-02-08T17:52:52;11.57;;;6.32;;
64351;SDS011;50680;52.626;-8.668;2023-02-08T17:55:20;12.52;;;6.55;;
64351;SDS011;50680;52.626;-8.668;2023-02-08T17:57:48;15.40;;;6.15;;
64351;SDS011;50680;52.626;-8.668;2023-02-08T18:00:18;13.80;;;6.15;;
64351;SDS011;50680;52.626;-8.668;2023-02-08T18:02:48;13.02;;;5.60;;
64351;SDS011;50680;52.626;-8.668;2023-02-08T18:05:18;16.52;;;6.10;;
64351;SDS011;50680;52.626;-8.668;2023-02-08T18:07:47;12.30;;;6.13;;
64351;SDS011;50680;52.626;-8.668;2023-02-08T18:10:14;16.17;;;6.35;;
64351;SDS011;50680;52.626;-8.668;2023-02-08T18:12:41;13.43;;;6.63;;